sensor_id;sensor_type;location;lat;lon;timestamp;P1;durP1;ratioP1;P2;durP2;ratioP2
37459;SDS011;23318;50.966;5.284;2023-05-10T00:01:07;13.27;;;10.82;;
37459;SDS011;23318;50.966;5.284;2023-05-10T00:03:33;18.40;;;12.00;;
37459;SDS011;23318;50.966;5.284;2023-05-10T00:05:58;20.02;;;13.05;;
37459;SDS011;23318;50.966;5.284;2023-05-10T00:08:24;14.65;;;11.88;;
37459;SDS011;23318;50.966;5.284;2023-05-10T00:10:50;14.90;;;11.65;;
37459;SDS011;23318;50.966;5.284;2023-05-10T00:13:16;15.13;;;11.15;;
37459;SDS011;23318;50.966;5.284;2023-05-10T00:15:41;13.30;;;11.75;;
37459;SDS011;23318;50.966;5.284;2023-05-10T00:18:07;12.63;;;10.95;;
37459;SDS011;23318;50.966;5.284;2023-05-10T00:20:33;16.58;;;11.00;;
37459;SDS011;23318;50.966;5.284;2023-05-10T00:22:58;15.52;;;11.50;;
37459;SDS011;23318;50.966;5.284;2023-05-10T00:25:24;12.95;;;10.38;;
37459;SDS011;23318;50.966;5.284;2023-05-10T00:27:50;12.25;;;10.98;;
37459;SDS011;23318;50.966;5.284;2023-05-10T00:30:15;14.02;;;11.25;;
37459;SDS011;23318;50.966;5.284;2023-05-10T00:32:41;11.88;;;10.05;;
37459;SDS011;23318;50.966;5.284;2023-05-10T00:35:08;17.40;;;10.35;;
37459;SDS011;23318;50.966;5.284;2023-05-10T00:37:34;16.50;;;10.25;;
37459;SDS011;23318;50.966;5.284;2023-05-10T00:39:59;11.57;;;9.88;;
37459;SDS011;23318;50.966;5.284;2023-05-10T00:42:25;14.63;;;10.80;;
37459;SDS011;23318;50.966;5.284;2023-05-10T00:44:51;13.77;;;10.70;;
37459;SDS011;23318;50.966;5.284;2023-05-10T00:47:16;13.68;;;10.38;;
37459;SDS011;23318;50.966;5.284;2023-05-10T00:49:42;17.02;;;10.90;;
37459;SDS011;23318;50.966;5.284;2023-05-10T00:52:09;15.25;;;11.20;;
37459;SDS011;23318;50.966;5.284;2023-05-10T00:54:35;14.13;;;10.93;;
37459;SDS011;23318;50.966;5.284;2023-05-10T00:57:01;14.82;;;10.82;;
37459;SDS011;23318;50.966;5.284;2023-05-10T00:59:28;14.70;;;10.75;;
37459;SDS011;23318;50.966;5.284;2023-05-10T01:01:54;13.63;;;10.25;;
37459;SDS011;23318;50.966;5.284;2023-05-10T01:04:20;14.30;;;10.55;;
37459;SDS011;23318;50.966;5.284;2023-05-10T01:06:50;13.90;;;10.90;;
37459;SDS011;23318;50.966;5.284;2023-05-10T01:09:17;16.00;;;10.95;;
37459;SDS011;23318;50.966;5.284;2023-05-10T01:11:44;13.82;;;10.75;;
37459;SDS011;23318;50.966;5.284;2023-05-10T01:14:10;13.43;;;10.75;;
37459;SDS011;23318;50.966;5.284;2023-05-10T01:16:37;18.75;;;11.20;;
37459;SDS011;23318;50.966;5.284;2023-05-10T01:19:04;18.40;;;11.02;;
37459;SDS011;23318;50.966;5.284;2023-05-10T01:21:42;14.55;;;9.52;;
37459;SDS011;23318;50.966;5.284;2023-05-10T01:27:24;14.32;;;9.20;;
37459;SDS011;23318;50.966;5.284;2023-05-10T01:38:17;16.67;;;9.88;;
37459;SDS011;23318;50.966;5.284;2023-05-10T01:43:28;16.67;;;10.25;;
37459;SDS011;23318;50.966;5.284;2023-05-10T01:48:44;18.48;;;10.27;;
37459;SDS011;23318;50.966;5.284;2023-05-10T01:51:19;16.63;;;10.10;;
37459;SDS011;23318;50.966;5.284;2023-05-10T01:53:48;18.02;;;9.73;;
37459;SDS011;23318;50.966;5.284;2023-05-10T01:56:16;15.10;;;9.35;;
37459;SDS011;23318;50.966;5.284;2023-05-10T01:58:44;17.20;;;10.45;;
37459;SDS011;23318;50.966;5.284;2023-05-10T02:01:13;15.20;;;10.32;;
37459;SDS011;23318;50.966;5.284;2023-05-10T02:03:40;19.30;;;10.40;;
37459;SDS011;23318;50.966;5.284;2023-05-10T02:06:09;16.58;;;10.45;;
37459;SDS011;23318;50.966;5.284;2023-05-10T02:08:37;16.67;;;11.30;;
37459;SDS011;23318;50.966;5.284;2023-05-10T02:11:05;16.45;;;11.40;;
37459;SDS011;23318;50.966;5.284;2023-05-10T02:13:31;18.88;;;10.68;;
37459;SDS011;23318;50.966;5.284;2023-05-10T02:15:59;16.92;;;9.63;;
37459;SDS011;23318;50.966;5.284;2023-05-10T02:18:28;15.30;;;9.50;;
37459;SDS011;23318;50.966;5.284;2023-05-10T02:20:56;14.98;;;10.55;;
37459;SDS011;23318;50.966;5.284;2023-05-10T02:23:23;18.83;;;10.27;;
37459;SDS011;23318;50.966;5.284;2023-05-10T02:25:51;16.10;;;11.00;;
37459;SDS011;23318;50.966;5.284;2023-05-10T02:28:18;22.70;;;11.60;;
37459;SDS011;23318;50.966;5.284;2023-05-10T02:30:46;16.67;;;10.57;;
37459;SDS011;23318;50.966;5.284;2023-05-10T02:33:12;20.70;;;11.25;;
37459;SDS011;23318;50.966;5.284;2023-05-10T02:35:39;21.15;;;11.00;;
37459;SDS011;23318;50.966;5.284;2023-05-10T02:38:06;20.45;;;11.38;;
37459;SDS011;23318;50.966;5.284;2023-05-10T02:40:32;20.00;;;12.35;;
37459;SDS011;23318;50.966;5.284;2023-05-10T02:43:01;25.55;;;12.52;;
37459;SDS011;23318;50.966;5.284;2023-05-10T02:45:30;20.15;;;12.88;;
37459;SDS011;23318;50.966;5.284;2023-05-10T02:47:57;20.50;;;12.43;;
37459;SDS011;23318;50.966;5.284;2023-05-10T02:50:25;17.90;;;12.45;;
37459;SDS011;23318;50.966;5.284;2023-05-10T02:52:54;19.88;;;11.40;;
37459;SDS011;23318;50.966;5.284;2023-05-10T02:55:25;20.95;;;12.13;;
37459;SDS011;23318;50.966;5.284;2023-05-10T02:57:59;24.13;;;13.20;;
37459;SDS011;23318;50.966;5.284;2023-05-10T03:00:26;22.65;;;13.65;;
37459;SDS011;23318;50.966;5.284;2023-05-10T03:02:52;26.25;;;14.48;;
37459;SDS011;23318;50.966;5.284;2023-05-10T03:05:18;25.05;;;13.30;;
37459;SDS011;23318;50.966;5.284;2023-05-10T03:07:44;28.73;;;12.95;;
37459;SDS011;23318;50.966;5.284;2023-05-10T03:10:11;18.95;;;12.00;;
37459;SDS011;23318;50.966;5.284;2023-05-10T03:20:36;20.08;;;12.27;;
37459;SDS011;23318;50.966;5.284;2023-05-10T03:23:09;24.73;;;12.27;;
37459;SDS011;23318;50.966;5.284;2023-05-10T03:25:59;22.98;;;12.65;;
37459;SDS011;23318;50.966;5.284;2023-05-10T03:28:26;27.27;;;13.30;;
37459;SDS011;23318;50.966;5.284;2023-05-10T03:30:53;23.45;;;12.35;;
37459;SDS011;23318;50.966;5.284;2023-05-10T03:33:19;23.00;;;12.45;;
37459;SDS011;23318;50.966;5.284;2023-05-10T03:35:45;23.20;;;12.10;;
37459;SDS011;23318;50.966;5.284;2023-05-10T03:38:14;22.38;;;12.85;;
37459;SDS011;23318;50.966;5.284;2023-05-10T03:40:39;25.30;;;12.48;;
37459;SDS011;23318;50.966;5.284;2023-05-10T03:43:05;25.88;;;13.52;;
37459;SDS011;23318;50.966;5.284;2023-05-10T03:45:31;36.17;;;14.85;;
37459;SDS011;23318;50.966;5.284;2023-05-10T03:47:57;27.75;;;15.57;;
37459;SDS011;23318;50.966;5.284;2023-05-10T03:50:23;34.45;;;17.00;;
37459;SDS011;23318;50.966;5.284;2023-05-10T03:52:49;31.45;;;17.08;;
37459;SDS011;23318;50.966;5.284;2023-05-10T03:55:15;35.20;;;16.85;;
37459;SDS011;23318;50.966;5.284;2023-05-10T03:57:41;34.03;;;17.85;;
37459;SDS011;23318;50.966;5.284;2023-05-10T04:00:07;43.40;;;20.08;;
37459;SDS011;23318;50.966;5.284;2023-05-10T04:02:34;33.20;;;18.70;;
37459;SDS011;23318;50.966;5.284;2023-05-10T04:05:00;29.50;;;18.67;;
37459;SDS011;23318;50.966;5.284;2023-05-10T04:07:26;36.25;;;20.35;;
37459;SDS011;23318;50.966;5.284;2023-05-10T04:09:51;41.58;;;20.05;;
37459;SDS011;23318;50.966;5.284;2023-05-10T04:12:17;37.22;;;19.58;;
37459;SDS011;23318;50.966;5.284;2023-05-10T04:14:43;37.67;;;20.38;;
37459;SDS011;23318;50.966;5.284;2023-05-10T04:17:08;42.58;;;20.85;;
37459;SDS011;23318;50.966;5.284;2023-05-10T04:19:35;33.15;;;19.98;;
37459;SDS011;23318;50.966;5.284;2023-05-10T04:22:01;37.80;;;20.73;;
37459;SDS011;23318;50.966;5.284;2023-05-10T04:24:27;37.97;;;21.52;;
37459;SDS011;23318;50.966;5.284;2023-05-10T04:26:53;40.10;;;22.10;;
37459;SDS011;23318;50.966;5.284;2023-05-10T04:29:20;47.92;;;23.40;;
37459;SDS011;23318;50.966;5.284;2023-05-10T04:31:45;46.90;;;22.73;;
37459;SDS011;23318;50.966;5.284;2023-05-10T04:34:11;48.75;;;23.73;;
37459;SDS011;23318;50.966;5.284;2023-05-10T04:36:37;48.15;;;23.65;;
37459;SDS011;23318;50.966;5.284;2023-05-10T04:39:03;41.42;;;23.95;;
37459;SDS011;23318;50.966;5.284;2023-05-10T04:41:29;45.47;;;23.58;;
37459;SDS011;23318;50.966;5.284;2023-05-10T04:43:55;48.80;;;24.50;;
37459;SDS011;23318;50.966;5.284;2023-05-10T04:46:21;53.72;;;24.73;;
37459;SDS011;23318;50.966;5.284;2023-05-10T04:48:47;48.92;;;26.05;;
37459;SDS011;23318;50.966;5.284;2023-05-10T04:51:12;54.38;;;27.60;;
37459;SDS011;23318;50.966;5.284;2023-05-10T04:53:38;47.35;;;26.23;;
37459;SDS011;23318;50.966;5.284;2023-05-10T04:56:04;54.15;;;27.30;;
37459;SDS011;23318;50.966;5.284;2023-05-10T04:58:30;58.38;;;29.70;;
37459;SDS011;23318;50.966;5.284;2023-05-10T05:00:56;61.22;;;28.80;;
37459;SDS011;23318;50.966;5.284;2023-05-10T05:03:21;59.47;;;29.70;;
37459;SDS011;23318;50.966;5.284;2023-05-10T05:05:47;62.38;;;29.92;;
37459;SDS011;23318;50.966;5.284;2023-05-10T05:08:13;62.60;;;30.50;;
37459;SDS011;23318;50.966;5.284;2023-05-10T05:10:39;63.10;;;29.17;;
37459;SDS011;23318;50.966;5.284;2023-05-10T05:13:05;63.50;;;29.38;;
37459;SDS011;23318;50.966;5.284;2023-05-10T05:15:30;59.97;;;28.60;;
37459;SDS011;23318;50.966;5.284;2023-05-10T05:17:56;67.20;;;30.58;;
37459;SDS011;23318;50.966;5.284;2023-05-10T05:20:22;67.07;;;31.10;;
37459;SDS011;23318;50.966;5.284;2023-05-10T05:22:48;71.95;;;32.35;;
37459;SDS011;23318;50.966;5.284;2023-05-10T05:25:14;79.50;;;35.25;;
37459;SDS011;23318;50.966;5.284;2023-05-10T05:27:40;85.18;;;36.38;;
37459;SDS011;23318;50.966;5.284;2023-05-10T05:30:06;85.30;;;37.05;;
37459;SDS011;23318;50.966;5.284;2023-05-10T05:32:32;87.00;;;36.83;;
37459;SDS011;23318;50.966;5.284;2023-05-10T05:34:58;90.78;;;39.30;;
37459;SDS011;23318;50.966;5.284;2023-05-10T05:37:24;98.45;;;42.35;;
37459;SDS011;23318;50.966;5.284;2023-05-10T05:39:50;100.68;;;41.00;;
37459;SDS011;23318;50.966;5.284;2023-05-10T05:42:16;89.70;;;39.00;;
37459;SDS011;23318;50.966;5.284;2023-05-10T05:44:43;92.35;;;41.72;;
37459;SDS011;23318;50.966;5.284;2023-05-10T05:47:09;95.57;;;41.47;;
37459;SDS011;23318;50.966;5.284;2023-05-10T05:49:35;88.90;;;39.75;;
37459;SDS011;23318;50.966;5.284;2023-05-10T05:52:01;86.65;;;39.17;;
37459;SDS011;23318;50.966;5.284;2023-05-10T05:54:28;82.82;;;38.70;;
37459;SDS011;23318;50.966;5.284;2023-05-10T05:56:55;90.00;;;38.50;;
37459;SDS011;23318;50.966;5.284;2023-05-10T05:59:21;84.20;;;37.10;;
37459;SDS011;23318;50.966;5.284;2023-05-10T06:01:47;78.80;;;37.03;;
37459;SDS011;23318;50.966;5.284;2023-05-10T06:04:13;79.13;;;37.28;;
37459;SDS011;23318;50.966;5.284;2023-05-10T06:06:38;82.95;;;37.85;;
37459;SDS011;23318;50.966;5.284;2023-05-10T06:09:04;79.95;;;35.35;;
37459;SDS011;23318;50.966;5.284;2023-05-10T06:11:30;80.22;;;35.13;;
37459;SDS011;23318;50.966;5.284;2023-05-10T06:13:57;69.10;;;34.28;;
37459;SDS011;23318;50.966;5.284;2023-05-10T06:16:23;71.15;;;34.47;;
37459;SDS011;23318;50.966;5.284;2023-05-10T06:18:49;76.45;;;34.90;;
37459;SDS011;23318;50.966;5.284;2023-05-10T06:21:14;77.85;;;34.85;;
37459;SDS011;23318;50.966;5.284;2023-05-10T06:23:41;83.50;;;38.45;;
37459;SDS011;23318;50.966;5.284;2023-05-10T06:26:07;82.70;;;36.35;;
37459;SDS011;23318;50.966;5.284;2023-05-10T06:28:32;92.13;;;38.00;;
37459;SDS011;23318;50.966;5.284;2023-05-10T06:30:58;80.43;;;36.67;;
37459;SDS011;23318;50.966;5.284;2023-05-10T06:33:25;87.05;;;39.22;;
37459;SDS011;23318;50.966;5.284;2023-05-10T06:35:50;90.55;;;39.88;;
37459;SDS011;23318;50.966;5.284;2023-05-10T06:38:16;89.18;;;38.13;;
37459;SDS011;23318;50.966;5.284;2023-05-10T06:40:42;90.13;;;38.67;;
37459;SDS011;23318;50.966;5.284;2023-05-10T06:43:08;91.30;;;39.47;;
37459;SDS011;23318;50.966;5.284;2023-05-10T06:45:35;83.63;;;38.33;;
37459;SDS011;23318;50.966;5.284;2023-05-10T06:48:01;88.10;;;38.05;;
37459;SDS011;23318;50.966;5.284;2023-05-10T06:50:27;86.72;;;37.88;;
37459;SDS011;23318;50.966;5.284;2023-05-10T06:52:53;85.68;;;38.35;;
37459;SDS011;23318;50.966;5.284;2023-05-10T06:55:19;86.57;;;36.85;;
37459;SDS011;23318;50.966;5.284;2023-05-10T06:57:44;92.65;;;37.85;;
37459;SDS011;23318;50.966;5.284;2023-05-10T07:00:10;82.10;;;36.67;;
37459;SDS011;23318;50.966;5.284;2023-05-10T07:02:36;89.90;;;38.67;;
37459;SDS011;23318;50.966;5.284;2023-05-10T07:05:02;81.15;;;37.75;;
37459;SDS011;23318;50.966;5.284;2023-05-10T07:07:28;81.50;;;37.40;;
37459;SDS011;23318;50.966;5.284;2023-05-10T07:09:54;86.40;;;38.45;;
37459;SDS011;23318;50.966;5.284;2023-05-10T07:12:21;82.05;;;38.05;;
37459;SDS011;23318;50.966;5.284;2023-05-10T07:14:47;82.78;;;36.83;;
37459;SDS011;23318;50.966;5.284;2023-05-10T07:17:12;91.85;;;38.35;;
37459;SDS011;23318;50.966;5.284;2023-05-10T07:19:38;83.82;;;36.70;;
37459;SDS011;23318;50.966;5.284;2023-05-10T07:22:04;85.10;;;37.67;;
37459;SDS011;23318;50.966;5.284;2023-05-10T07:24:29;91.60;;;38.90;;
37459;SDS011;23318;50.966;5.284;2023-05-10T07:26:56;88.50;;;36.72;;
37459;SDS011;23318;50.966;5.284;2023-05-10T07:29:21;86.15;;;36.65;;
37459;SDS011;23318;50.966;5.284;2023-05-10T07:31:47;83.80;;;36.75;;
37459;SDS011;23318;50.966;5.284;2023-05-10T07:34:13;83.78;;;37.10;;
37459;SDS011;23318;50.966;5.284;2023-05-10T07:36:38;81.25;;;36.58;;
37459;SDS011;23318;50.966;5.284;2023-05-10T07:39:04;85.68;;;36.90;;
37459;SDS011;23318;50.966;5.284;2023-05-10T07:41:30;79.18;;;35.78;;
37459;SDS011;23318;50.966;5.284;2023-05-10T07:43:55;78.82;;;36.42;;
37459;SDS011;23318;50.966;5.284;2023-05-10T07:46:21;73.40;;;34.83;;
37459;SDS011;23318;50.966;5.284;2023-05-10T07:48:47;78.93;;;35.72;;
37459;SDS011;23318;50.966;5.284;2023-05-10T07:51:12;75.95;;;36.30;;
37459;SDS011;23318;50.966;5.284;2023-05-10T07:53:38;75.93;;;35.00;;
37459;SDS011;23318;50.966;5.284;2023-05-10T07:56:20;75.95;;;35.88;;
37459;SDS011;23318;50.966;5.284;2023-05-10T07:58:47;66.10;;;32.42;;
37459;SDS011;23318;50.966;5.284;2023-05-10T08:01:13;65.03;;;32.78;;
37459;SDS011;23318;50.966;5.284;2023-05-10T08:03:39;56.47;;;30.00;;
37459;SDS011;23318;50.966;5.284;2023-05-10T08:06:05;56.25;;;30.70;;
37459;SDS011;23318;50.966;5.284;2023-05-10T08:08:31;53.30;;;28.92;;
37459;SDS011;23318;50.966;5.284;2023-05-10T08:10:56;60.05;;;29.98;;
37459;SDS011;23318;50.966;5.284;2023-05-10T08:13:22;52.65;;;28.70;;
37459;SDS011;23318;50.966;5.284;2023-05-10T08:15:48;49.88;;;28.05;;
37459;SDS011;23318;50.966;5.284;2023-05-10T08:18:13;53.17;;;28.90;;
37459;SDS011;23318;50.966;5.284;2023-05-10T08:20:39;43.97;;;26.73;;
37459;SDS011;23318;50.966;5.284;2023-05-10T08:23:05;48.72;;;27.75;;
37459;SDS011;23318;50.966;5.284;2023-05-10T08:25:31;18.98;;;11.70;;
37459;SDS011;23318;50.966;5.284;2023-05-10T08:27:56;20.55;;;13.27;;
37459;SDS011;23318;50.966;5.284;2023-05-10T08:30:22;10.52;;;6.25;;
37459;SDS011;23318;50.966;5.284;2023-05-10T08:32:48;9.02;;;6.00;;
37459;SDS011;23318;50.966;5.284;2023-05-10T08:35:13;9.82;;;6.47;;
37459;SDS011;23318;50.966;5.284;2023-05-10T08:37:40;7.68;;;5.50;;
37459;SDS011;23318;50.966;5.284;2023-05-10T08:40:06;12.68;;;5.55;;
37459;SDS011;23318;50.966;5.284;2023-05-10T08:42:34;7.13;;;4.78;;
37459;SDS011;23318;50.966;5.284;2023-05-10T08:45:04;6.32;;;4.75;;
37459;SDS011;23318;50.966;5.284;2023-05-10T08:47:31;5.93;;;4.70;;
37459;SDS011;23318;50.966;5.284;2023-05-10T08:49:59;9.60;;;5.32;;
37459;SDS011;23318;50.966;5.284;2023-05-10T08:52:27;7.50;;;5.50;;
37459;SDS011;23318;50.966;5.284;2023-05-10T08:54:55;7.78;;;5.55;;
37459;SDS011;23318;50.966;5.284;2023-05-10T08:57:21;5.97;;;5.03;;
37459;SDS011;23318;50.966;5.284;2023-05-10T08:59:47;7.43;;;5.78;;
37459;SDS011;23318;50.966;5.284;2023-05-10T09:02:13;9.93;;;6.50;;
37459;SDS011;23318;50.966;5.284;2023-05-10T09:04:39;12.90;;;6.35;;
37459;SDS011;23318;50.966;5.284;2023-05-10T09:07:06;11.52;;;6.75;;
37459;SDS011;23318;50.966;5.284;2023-05-10T09:09:32;12.55;;;6.57;;
37459;SDS011;23318;50.966;5.284;2023-05-10T09:11:58;10.00;;;6.82;;
37459;SDS011;23318;50.966;5.284;2023-05-10T09:14:24;12.02;;;7.07;;
37459;SDS011;23318;50.966;5.284;2023-05-10T09:16:50;11.00;;;7.20;;
37459;SDS011;23318;50.966;5.284;2023-05-10T09:19:16;14.07;;;7.70;;
37459;SDS011;23318;50.966;5.284;2023-05-10T09:21:42;14.88;;;7.95;;
37459;SDS011;23318;50.966;5.284;2023-05-10T09:24:08;13.48;;;7.47;;
37459;SDS011;23318;50.966;5.284;2023-05-10T09:26:34;20.30;;;8.93;;
37459;SDS011;23318;50.966;5.284;2023-05-10T09:29:01;15.98;;;8.98;;
37459;SDS011;23318;50.966;5.284;2023-05-10T09:31:49;12.52;;;8.15;;
37459;SDS011;23318;50.966;5.284;2023-05-10T09:34:20;13.77;;;8.68;;
37459;SDS011;23318;50.966;5.284;2023-05-10T09:36:55;14.35;;;8.45;;
37459;SDS011;23318;50.966;5.284;2023-05-10T09:39:40;13.00;;;8.25;;
37459;SDS011;23318;50.966;5.284;2023-05-10T09:42:09;13.35;;;9.50;;
37459;SDS011;23318;50.966;5.284;2023-05-10T09:44:35;13.63;;;9.40;;
37459;SDS011;23318;50.966;5.284;2023-05-10T09:47:02;13.18;;;9.10;;
37459;SDS011;23318;50.966;5.284;2023-05-10T09:49:28;14.40;;;9.45;;
37459;SDS011;23318;50.966;5.284;2023-05-10T09:51:59;15.98;;;9.82;;
37459;SDS011;23318;50.966;5.284;2023-05-10T09:54:26;15.90;;;10.90;;
37459;SDS011;23318;50.966;5.284;2023-05-10T09:56:52;17.15;;;11.20;;
37459;SDS011;23318;50.966;5.284;2023-05-10T09:59:17;19.27;;;10.82;;
37459;SDS011;23318;50.966;5.284;2023-05-10T10:01:49;16.30;;;11.07;;
37459;SDS011;23318;50.966;5.284;2023-05-10T10:04:16;20.05;;;11.02;;
37459;SDS011;23318;50.966;5.284;2023-05-10T10:06:42;17.27;;;11.73;;
37459;SDS011;23318;50.966;5.284;2023-05-10T10:09:08;20.38;;;12.25;;
37459;SDS011;23318;50.966;5.284;2023-05-10T10:11:35;19.45;;;11.65;;
37459;SDS011;23318;50.966;5.284;2023-05-10T10:14:02;17.55;;;10.75;;
37459;SDS011;23318;50.966;5.284;2023-05-10T10:16:31;16.38;;;11.27;;
37459;SDS011;23318;50.966;5.284;2023-05-10T10:18:57;18.00;;;12.23;;
37459;SDS011;23318;50.966;5.284;2023-05-10T10:21:24;16.48;;;11.35;;
37459;SDS011;23318;50.966;5.284;2023-05-10T10:23:50;19.67;;;11.88;;
37459;SDS011;23318;50.966;5.284;2023-05-10T10:26:17;19.05;;;11.52;;
37459;SDS011;23318;50.966;5.284;2023-05-10T10:31:39;20.23;;;12.35;;
37459;SDS011;23318;50.966;5.284;2023-05-10T10:34:10;15.40;;;11.77;;
37459;SDS011;23318;50.966;5.284;2023-05-10T10:36:43;18.92;;;12.23;;
37459;SDS011;23318;50.966;5.284;2023-05-10T10:39:11;19.50;;;12.48;;
37459;SDS011;23318;50.966;5.284;2023-05-10T10:41:38;18.38;;;12.02;;
37459;SDS011;23318;50.966;5.284;2023-05-10T10:47:00;16.70;;;11.88;;
37459;SDS011;23318;50.966;5.284;2023-05-10T10:49:50;16.55;;;11.20;;
37459;SDS011;23318;50.966;5.284;2023-05-10T11:00:24;13.30;;;9.65;;
37459;SDS011;23318;50.966;5.284;2023-05-10T11:03:07;14.63;;;9.52;;
37459;SDS011;23318;50.966;5.284;2023-05-10T11:05:49;15.73;;;9.18;;
37459;SDS011;23318;50.966;5.284;2023-05-10T11:08:41;12.20;;;8.57;;
37459;SDS011;23318;50.966;5.284;2023-05-10T11:11:09;13.68;;;9.35;;
37459;SDS011;23318;50.966;5.284;2023-05-10T11:13:41;11.75;;;8.85;;
37459;SDS011;23318;50.966;5.284;2023-05-10T11:16:10;13.02;;;8.52;;
37459;SDS011;23318;50.966;5.284;2023-05-10T11:18:37;9.00;;;7.60;;
37459;SDS011;23318;50.966;5.284;2023-05-10T11:21:03;10.15;;;7.43;;
37459;SDS011;23318;50.966;5.284;2023-05-10T11:23:32;13.98;;;7.47;;
37459;SDS011;23318;50.966;5.284;2023-05-10T11:26:12;8.70;;;7.18;;
37459;SDS011;23318;50.966;5.284;2023-05-10T11:28:45;12.85;;;7.65;;
37459;SDS011;23318;50.966;5.284;2023-05-10T11:33:45;10.82;;;7.65;;
37459;SDS011;23318;50.966;5.284;2023-05-10T11:36:23;10.88;;;6.93;;
37459;SDS011;23318;50.966;5.284;2023-05-10T11:38:54;8.88;;;6.72;;
37459;SDS011;23318;50.966;5.284;2023-05-10T11:41:20;9.30;;;6.70;;
37459;SDS011;23318;50.966;5.284;2023-05-10T11:43:48;8.38;;;6.55;;
37459;SDS011;23318;50.966;5.284;2023-05-10T11:46:16;8.57;;;5.97;;
37459;SDS011;23318;50.966;5.284;2023-05-10T11:48:45;6.78;;;5.35;;
37459;SDS011;23318;50.966;5.284;2023-05-10T11:51:11;7.50;;;4.65;;
37459;SDS011;23318;50.966;5.284;2023-05-10T11:53:37;5.60;;;4.90;;
37459;SDS011;23318;50.966;5.284;2023-05-10T11:56:06;7.05;;;4.93;;
37459;SDS011;23318;50.966;5.284;2023-05-10T11:58:34;7.68;;;3.53;;
37459;SDS011;23318;50.966;5.284;2023-05-10T12:01:01;4.68;;;3.92;;
37459;SDS011;23318;50.966;5.284;2023-05-10T12:03:27;4.53;;;4.10;;
37459;SDS011;23318;50.966;5.284;2023-05-10T12:05:54;5.95;;;4.00;;
37459;SDS011;23318;50.966;5.284;2023-05-10T12:08:22;7.78;;;4.38;;
37459;SDS011;23318;50.966;5.284;2023-05-10T12:10:48;4.88;;;4.00;;
37459;SDS011;23318;50.966;5.284;2023-05-10T12:13:14;6.22;;;4.18;;
37459;SDS011;23318;50.966;5.284;2023-05-10T12:15:41;5.10;;;3.50;;
37459;SDS011;23318;50.966;5.284;2023-05-10T12:18:08;4.90;;;3.22;;
37459;SDS011;23318;50.966;5.284;2023-05-10T12:20:35;5.43;;;3.95;;
37459;SDS011;23318;50.966;5.284;2023-05-10T12:23:01;4.60;;;3.47;;
37459;SDS011;23318;50.966;5.284;2023-05-10T12:25:32;3.55;;;3.25;;
37459;SDS011;23318;50.966;5.284;2023-05-10T12:28:00;6.25;;;3.20;;
37459;SDS011;23318;50.966;5.284;2023-05-10T12:30:29;4.45;;;2.72;;
37459;SDS011;23318;50.966;5.284;2023-05-10T12:32:59;3.65;;;3.28;;
37459;SDS011;23318;50.966;5.284;2023-05-10T12:35:33;4.43;;;3.42;;
37459;SDS011;23318;50.966;5.284;2023-05-10T12:41:08;4.50;;;4.05;;
37459;SDS011;23318;50.966;5.284;2023-05-10T12:43:35;5.93;;;3.92;;
37459;SDS011;23318;50.966;5.284;2023-05-10T12:46:05;4.85;;;3.38;;
37459;SDS011;23318;50.966;5.284;2023-05-10T12:48:35;4.10;;;3.40;;
37459;SDS011;23318;50.966;5.284;2023-05-10T12:51:02;3.30;;;3.00;;
37459;SDS011;23318;50.966;5.284;2023-05-10T12:53:28;4.75;;;3.35;;
37459;SDS011;23318;50.966;5.284;2023-05-10T12:55:54;6.60;;;3.72;;
37459;SDS011;23318;50.966;5.284;2023-05-10T12:58:20;4.72;;;3.40;;
37459;SDS011;23318;50.966;5.284;2023-05-10T13:00:46;5.40;;;3.75;;
37459;SDS011;23318;50.966;5.284;2023-05-10T13:03:11;3.97;;;2.97;;
37459;SDS011;23318;50.966;5.284;2023-05-10T13:05:37;4.25;;;2.80;;
37459;SDS011;23318;50.966;5.284;2023-05-10T13:08:03;4.72;;;2.60;;
37459;SDS011;23318;50.966;5.284;2023-05-10T13:10:29;3.60;;;2.58;;
37459;SDS011;23318;50.966;5.284;2023-05-10T13:12:56;3.75;;;2.10;;
37459;SDS011;23318;50.966;5.284;2023-05-10T13:15:22;2.22;;;1.75;;
37459;SDS011;23318;50.966;5.284;2023-05-10T13:17:48;4.53;;;1.52;;
37459;SDS011;23318;50.966;5.284;2023-05-10T13:20:14;2.15;;;1.77;;
37459;SDS011;23318;50.966;5.284;2023-05-10T13:22:40;1.88;;;1.77;;
37459;SDS011;23318;50.966;5.284;2023-05-10T13:25:07;1.50;;;1.40;;
37459;SDS011;23318;50.966;5.284;2023-05-10T13:27:33;1.38;;;1.27;;
37459;SDS011;23318;50.966;5.284;2023-05-10T13:29:58;2.70;;;1.40;;
37459;SDS011;23318;50.966;5.284;2023-05-10T13:32:25;1.40;;;1.30;;
37459;SDS011;23318;50.966;5.284;2023-05-10T13:34:51;1.83;;;1.73;;
37459;SDS011;23318;50.966;5.284;2023-05-10T13:37:17;1.60;;;1.50;;
37459;SDS011;23318;50.966;5.284;2023-05-10T13:39:42;1.63;;;1.52;;
37459;SDS011;23318;50.966;5.284;2023-05-10T13:42:08;3.13;;;1.63;;
37459;SDS011;23318;50.966;5.284;2023-05-10T13:44:34;1.52;;;1.42;;
37459;SDS011;23318;50.966;5.284;2023-05-10T13:47:01;2.33;;;1.40;;
37459;SDS011;23318;50.966;5.284;2023-05-10T13:49:26;1.33;;;1.23;;
37459;SDS011;23318;50.966;5.284;2023-05-10T13:51:52;1.50;;;1.40;;
37459;SDS011;23318;50.966;5.284;2023-05-10T13:54:18;2.17;;;1.58;;
37459;SDS011;23318;50.966;5.284;2023-05-10T13:56:44;1.67;;;1.20;;
37459;SDS011;23318;50.966;5.284;2023-05-10T13:59:12;1.35;;;1.20;;
37459;SDS011;23318;50.966;5.284;2023-05-10T14:01:39;3.22;;;1.25;;
37459;SDS011;23318;50.966;5.284;2023-05-10T14:04:08;1.42;;;1.10;;
37459;SDS011;23318;50.966;5.284;2023-05-10T14:06:35;1.98;;;1.30;;
37459;SDS011;23318;50.966;5.284;2023-05-10T14:09:02;1.25;;;1.15;;
37459;SDS011;23318;50.966;5.284;2023-05-10T14:11:28;1.25;;;1.20;;
37459;SDS011;23318;50.966;5.284;2023-05-10T14:13:54;1.10;;;1.00;;
37459;SDS011;23318;50.966;5.284;2023-05-10T14:16:19;3.17;;;1.00;;
37459;SDS011;23318;50.966;5.284;2023-05-10T14:18:45;1.40;;;1.30;;
37459;SDS011;23318;50.966;5.284;2023-05-10T14:21:11;1.60;;;1.50;;
37459;SDS011;23318;50.966;5.284;2023-05-10T14:23:38;5.97;;;2.00;;
37459;SDS011;23318;50.966;5.284;2023-05-10T14:26:04;1.40;;;1.30;;
37459;SDS011;23318;50.966;5.284;2023-05-10T14:28:30;1.63;;;1.50;;
37459;SDS011;23318;50.966;5.284;2023-05-10T14:30:55;1.58;;;1.48;;
37459;SDS011;23318;50.966;5.284;2023-05-10T14:33:21;2.95;;;1.70;;
37459;SDS011;23318;50.966;5.284;2023-05-10T14:35:47;4.03;;;1.88;;
37459;SDS011;23318;50.966;5.284;2023-05-10T14:38:13;1.95;;;1.80;;
37459;SDS011;23318;50.966;5.284;2023-05-10T14:40:39;1.83;;;1.63;;
37459;SDS011;23318;50.966;5.284;2023-05-10T14:43:05;2.53;;;2.28;;
37459;SDS011;23318;50.966;5.284;2023-05-10T14:45:30;2.28;;;2.08;;
37459;SDS011;23318;50.966;5.284;2023-05-10T14:47:57;3.28;;;2.15;;
37459;SDS011;23318;50.966;5.284;2023-05-10T14:50:23;2.28;;;1.95;;
37459;SDS011;23318;50.966;5.284;2023-05-10T14:52:48;4.35;;;2.55;;
37459;SDS011;23318;50.966;5.284;2023-05-10T14:55:15;2.85;;;2.30;;
37459;SDS011;23318;50.966;5.284;2023-05-10T14:57:40;2.30;;;1.70;;
37459;SDS011;23318;50.966;5.284;2023-05-10T15:00:06;3.90;;;2.38;;
37459;SDS011;23318;50.966;5.284;2023-05-10T15:02:33;4.45;;;2.22;;
37459;SDS011;23318;50.966;5.284;2023-05-10T15:04:58;2.70;;;1.85;;
37459;SDS011;23318;50.966;5.284;2023-05-10T15:07:24;2.55;;;2.17;;
37459;SDS011;23318;50.966;5.284;2023-05-10T15:09:50;2.35;;;2.15;;
37459;SDS011;23318;50.966;5.284;2023-05-10T15:12:19;2.30;;;2.10;;
37459;SDS011;23318;50.966;5.284;2023-05-10T15:14:45;2.90;;;2.30;;